sensor_id;sensor_type;location;lat;lon;timestamp;temperature;humidity
9157;DHT22;4613;48.392;9.998;2023-04-03T00:00:09;5.10;99.90
9157;DHT22;4613;48.392;9.998;2023-04-03T00:02:59;5.10;99.90
9157;DHT22;4613;48.392;9.998;2023-04-03T00:05:49;5.10;99.90
9157;DHT22;4613;48.392;9.998;2023-04-03T00:08:40;5.10;99.90
9157;DHT22;4613;48.392;9.998;2023-04-03T00:11:30;5.00;99.90
9157;DHT22;4613;48.392;9.998;2023-04-03T00:14:19;5.10;99.90
9157;DHT22;4613;48.392;9.998;2023-04-03T00:17:08;5.10;99.90
9157;DHT22;4613;48.392;9.998;2023-04-03T00:19:57;5.00;99.90
9157;DHT22;4613;48.392;9.998;2023-04-03T00:22:46;5.00;99.90
9157;DHT22;4613;48.392;9.998;2023-04-03T00:25:36;4.90;99.90
9157;DHT22;4613;48.392;9.998;2023-04-03T00:28:26;4.60;99.90
9157;DHT22;4613;48.392;9.998;2023-04-03T00:31:16;4.70;99.90
9157;DHT22;4613;48.392;9.998;2023-04-03T00:34:05;4.60;99.90
9157;DHT22;4613;48.392;9.998;2023-04-03T00:36:54;4.80;99.90
9157;DHT22;4613;48.392;9.998;2023-04-03T00:39:43;4.80;99.90
9157;DHT22;4613;48.392;9.998;2023-04-03T00:42:33;4.60;99.90
9157;DHT22;4613;48.392;9.998;2023-04-03T00:45:32;4.60;99.90
9157;DHT22;4613;48.392;9.998;2023-04-03T00:51:26;4.70;99.90
9157;DHT22;4613;48.392;9.998;2023-04-03T00:54:16;4.50;99.90
9157;DHT22;4613;48.392;9.998;2023-04-03T00:57:06;4.40;99.90
9157;DHT22;4613;48.392;9.998;2023-04-03T01:00:01;4.40;99.90
9157;DHT22;4613;48.392;9.998;2023-04-03T01:02:52;4.50;99.90
9157;DHT22;4613;48.392;9.998;2023-04-03T01:05:42;4.50;99.90
9157;DHT22;4613;48.392;9.998;2023-04-03T01:08:31;4.50;99.90
9157;DHT22;4613;48.392;9.998;2023-04-03T01:11:21;4.30;99.90
9157;DHT22;4613;48.392;9.998;2023-04-03T01:14:11;4.40;99.90
9157;DHT22;4613;48.392;9.998;2023-04-03T01:17:00;4.50;99.90
9157;DHT22;4613;48.392;9.998;2023-04-03T01:25:52;4.60;99.90
9157;DHT22;4613;48.392;9.998;2023-04-03T01:28:43;4.40;99.90
9157;DHT22;4613;48.392;9.998;2023-04-03T01:31:53;4.50;99.90
9157;DHT22;4613;48.392;9.998;2023-04-03T01:34:43;4.50;99.90
9157;DHT22;4613;48.392;9.998;2023-04-03T01:37:32;4.40;99.90
9157;DHT22;4613;48.392;9.998;2023-04-03T01:40:21;4.30;99.90
9157;DHT22;4613;48.392;9.998;2023-04-03T01:43:11;4.40;99.90
9157;DHT22;4613;48.392;9.998;2023-04-03T01:46:01;4.50;99.90
9157;DHT22;4613;48.392;9.998;2023-04-03T01:48:51;4.50;99.90
9157;DHT22;4613;48.392;9.998;2023-04-03T01:51:40;4.60;99.90
9157;DHT22;4613;48.392;9.998;2023-04-03T01:54:29;4.50;99.90
9157;DHT22;4613;48.392;9.998;2023-04-03T01:57:18;4.60;99.90
9157;DHT22;4613;48.392;9.998;2023-04-03T02:00:09;4.60;99.90
9157;DHT22;4613;48.392;9.998;2023-04-03T02:03:02;4.60;99.90
9157;DHT22;4613;48.392;9.998;2023-04-03T02:05:54;4.40;99.90
9157;DHT22;4613;48.392;9.998;2023-04-03T02:08:46;4.50;99.90
9157;DHT22;4613;48.392;9.998;2023-04-03T02:11:36;4.60;99.90
9157;DHT22;4613;48.392;9.998;2023-04-03T02:14:26;4.60;99.90
9157;DHT22;4613;48.392;9.998;2023-04-03T02:17:16;4.50;99.90
9157;DHT22;4613;48.392;9.998;2023-04-03T02:20:06;4.50;99.90
9157;DHT22;4613;48.392;9.998;2023-04-03T02:22:56;4.60;99.90
9157;DHT22;4613;48.392;9.998;2023-04-03T02:25:48;4.60;99.90
9157;DHT22;4613;48.392;9.998;2023-04-03T02:28:38;4.50;99.90
9157;DHT22;4613;48.392;9.998;2023-04-03T02:31:28;4.50;99.90
9157;DHT22;4613;48.392;9.998;2023-04-03T02:34:18;4.50;99.90
9157;DHT22;4613;48.392;9.998;2023-04-03T02:37:08;4.50;99.90
9157;DHT22;4613;48.392;9.998;2023-04-03T02:39:58;4.50;99.90
9157;DHT22;4613;48.392;9.998;2023-04-03T02:42:49;4.40;99.90
9157;DHT22;4613;48.392;9.998;2023-04-03T02:45:38;4.60;99.90
9157;DHT22;4613;48.392;9.998;2023-04-03T02:48:28;4.60;99.90
9157;DHT22;4613;48.392;9.998;2023-04-03T02:51:18;4.50;99.90
9157;DHT22;4613;48.392;9.998;2023-04-03T02:54:07;4.50;99.90
9157;DHT22;4613;48.392;9.998;2023-04-03T02:56:59;4.50;99.90
9157;DHT22;4613;48.392;9.998;2023-04-03T02:59:49;4.50;99.90
9157;DHT22;4613;48.392;9.998;2023-04-03T03:02:38;4.50;99.90
9157;DHT22;4613;48.392;9.998;2023-04-03T03:05:28;4.50;99.90
9157;DHT22;4613;48.392;9.998;2023-04-03T03:08:17;4.50;99.90
9157;DHT22;4613;48.392;9.998;2023-04-03T03:11:09;4.60;99.90
9157;DHT22;4613;48.392;9.998;2023-04-03T03:13:58;4.40;99.90
9157;DHT22;4613;48.392;9.998;2023-04-03T03:16:48;4.40;99.90
9157;DHT22;4613;48.392;9.998;2023-04-03T03:19:41;4.40;99.90
9157;DHT22;4613;48.392;9.998;2023-04-03T03:22:31;4.30;99.90
9157;DHT22;4613;48.392;9.998;2023-04-03T03:25:20;4.30;99.90
9157;DHT22;4613;48.392;9.998;2023-04-03T03:28:10;4.30;99.90
9157;DHT22;4613;48.392;9.998;2023-04-03T03:31:03;4.40;99.90
9157;DHT22;4613;48.392;9.998;2023-04-03T03:33:53;4.40;99.90
9157;DHT22;4613;48.392;9.998;2023-04-03T03:36:42;4.20;99.90
9157;DHT22;4613;48.392;9.998;2023-04-03T03:39:32;4.20;99.90
9157;DHT22;4613;48.392;9.998;2023-04-03T03:42:21;4.30;99.90
9157;DHT22;4613;48.392;9.998;2023-04-03T03:45:12;4.40;99.90
9157;DHT22;4613;48.392;9.998;2023-04-03T03:48:03;4.40;99.90
9157;DHT22;4613;48.392;9.998;2023-04-03T03:50:53;4.40;99.90
9157;DHT22;4613;48.392;9.998;2023-04-03T03:53:46;4.50;99.90
9157;DHT22;4613;48.392;9.998;2023-04-03T03:56:39;4.40;99.90
9157;DHT22;4613;48.392;9.998;2023-04-03T03:59:29;4.50;99.90
9157;DHT22;4613;48.392;9.998;2023-04-03T04:02:19;4.40;99.90
9157;DHT22;4613;48.392;9.998;2023-04-03T04:05:08;4.40;99.90
9157;DHT22;4613;48.392;9.998;2023-04-03T04:07:58;4.50;99.90
9157;DHT22;4613;48.392;9.998;2023-04-03T04:10:48;4.50;99.90
9157;DHT22;4613;48.392;9.998;2023-04-03T04:13:39;4.50;99.90
9157;DHT22;4613;48.392;9.998;2023-04-03T04:16:29;4.50;99.90
9157;DHT22;4613;48.392;9.998;2023-04-03T04:19:23;4.40;99.90
9157;DHT22;4613;48.392;9.998;2023-04-03T04:22:12;4.40;99.90
9157;DHT22;4613;48.392;9.998;2023-04-03T04:25:02;4.40;99.90
9157;DHT22;4613;48.392;9.998;2023-04-03T04:27:51;4.40;99.90
9157;DHT22;4613;48.392;9.998;2023-04-03T04:30:41;4.40;99.90
9157;DHT22;4613;48.392;9.998;2023-04-03T04:33:31;4.30;99.90
9157;DHT22;4613;48.392;9.998;2023-04-03T04:36:23;4.20;99.90
9157;DHT22;4613;48.392;9.998;2023-04-03T04:39:13;4.30;99.90
9157;DHT22;4613;48.392;9.998;2023-04-03T04:42:05;4.10;99.90
9157;DHT22;4613;48.392;9.998;2023-04-03T04:44:56;3.90;99.90
9157;DHT22;4613;48.392;9.998;2023-04-03T04:47:46;4.10;99.90
9157;DHT22;4613;48.392;9.998;2023-04-03T04:50:36;4.10;99.90
9157;DHT22;4613;48.392;9.998;2023-04-03T04:53:26;4.10;99.90
9157;DHT22;4613;48.392;9.998;2023-04-03T04:56:16;4.10;99.90
9157;DHT22;4613;48.392;9.998;2023-04-03T04:59:07;4.10;99.90
9157;DHT22;4613;48.392;9.998;2023-04-03T05:01:56;4.00;99.90
9157;DHT22;4613;48.392;9.998;2023-04-03T05:04:46;4.20;99.90
9157;DHT22;4613;48.392;9.998;2023-04-03T05:07:43;4.10;99.90
9157;DHT22;4613;48.392;9.998;2023-04-03T05:10:33;4.00;99.90
9157;DHT22;4613;48.392;9.998;2023-04-03T05:13:22;3.90;99.90
9157;DHT22;4613;48.392;9.998;2023-04-03T05:16:12;4.10;99.90
9157;DHT22;4613;48.392;9.998;2023-04-03T05:19:02;4.10;99.90
9157;DHT22;4613;48.392;9.998;2023-04-03T05:21:52;4.10;99.90
9157;DHT22;4613;48.392;9.998;2023-04-03T05:24:42;4.00;99.90
9157;DHT22;4613;48.392;9.998;2023-04-03T05:27:32;4.00;99.90
9157;DHT22;4613;48.392;9.998;2023-04-03T05:30:22;4.00;99.90
9157;DHT22;4613;48.392;9.998;2023-04-03T05:33:12;4.00;99.90
9157;DHT22;4613;48.392;9.998;2023-04-03T05:36:09;4.00;99.90
9157;DHT22;4613;48.392;9.998;2023-04-03T05:39:04;4.00;99.90
9157;DHT22;4613;48.392;9.998;2023-04-03T05:41:59;3.80;99.90
9157;DHT22;4613;48.392;9.998;2023-04-03T05:44:51;3.90;99.90
9157;DHT22;4613;48.392;9.998;2023-04-03T05:47:41;4.00;99.90
9157;DHT22;4613;48.392;9.998;2023-04-03T05:50:35;4.00;99.90
9157;DHT22;4613;48.392;9.998;2023-04-03T05:53:33;4.00;99.90
9157;DHT22;4613;48.392;9.998;2023-04-03T05:56:27;3.90;99.90
9157;DHT22;4613;48.392;9.998;2023-04-03T05:59:17;4.10;99.90
9157;DHT22;4613;48.392;9.998;2023-04-03T06:02:13;4.20;99.90
9157;DHT22;4613;48.392;9.998;2023-04-03T06:05:02;4.10;99.90
9157;DHT22;4613;48.392;9.998;2023-04-03T06:07:52;4.20;99.90
9157;DHT22;4613;48.392;9.998;2023-04-03T06:10:41;3.90;99.90
9157;DHT22;4613;48.392;9.998;2023-04-03T06:13:30;3.80;99.90
9157;DHT22;4613;48.392;9.998;2023-04-03T06:16:20;3.90;99.90
9157;DHT22;4613;48.392;9.998;2023-04-03T06:19:11;4.00;99.90
9157;DHT22;4613;48.392;9.998;2023-04-03T06:22:04;4.10;99.90
9157;DHT22;4613;48.392;9.998;2023-04-03T06:24:54;4.00;99.90
9157;DHT22;4613;48.392;9.998;2023-04-03T06:27:44;4.20;99.90
9157;DHT22;4613;48.392;9.998;2023-04-03T06:30:33;4.10;99.90
9157;DHT22;4613;48.392;9.998;2023-04-03T06:33:22;4.10;99.90
9157;DHT22;4613;48.392;9.998;2023-04-03T06:36:11;4.10;99.90
9157;DHT22;4613;48.392;9.998;2023-04-03T06:39:01;4.10;99.90
9157;DHT22;4613;48.392;9.998;2023-04-03T06:41:51;4.00;99.90
9157;DHT22;4613;48.392;9.998;2023-04-03T06:44:48;3.90;99.90
9157;DHT22;4613;48.392;9.998;2023-04-03T06:47:37;4.00;99.90
9157;DHT22;4613;48.392;9.998;2023-04-03T06:50:27;4.00;99.90
9157;DHT22;4613;48.392;9.998;2023-04-03T06:53:15;4.00;99.90
9157;DHT22;4613;48.392;9.998;2023-04-03T06:56:08;4.00;99.90
9157;DHT22;4613;48.392;9.998;2023-04-03T06:58:58;4.00;99.90
9157;DHT22;4613;48.392;9.998;2023-04-03T07:01:47;4.10;99.90
9157;DHT22;4613;48.392;9.998;2023-04-03T07:04:37;4.10;99.90
9157;DHT22;4613;48.392;9.998;2023-04-03T07:07:26;4.10;99.90
9157;DHT22;4613;48.392;9.998;2023-04-03T07:10:15;3.90;99.90
9157;DHT22;4613;48.392;9.998;2023-04-03T07:13:04;4.00;99.90
9157;DHT22;4613;48.392;9.998;2023-04-03T07:15:53;4.20;99.90
9157;DHT22;4613;48.392;9.998;2023-04-03T07:18:46;4.00;99.90
9157;DHT22;4613;48.392;9.998;2023-04-03T07:21:36;4.00;99.90
9157;DHT22;4613;48.392;9.998;2023-04-03T07:24:26;4.10;99.90
9157;DHT22;4613;48.392;9.998;2023-04-03T07:27:15;4.00;99.90
9157;DHT22;4613;48.392;9.998;2023-04-03T07:30:06;3.90;99.90
9157;DHT22;4613;48.392;9.998;2023-04-03T07:32:56;4.10;99.90
9157;DHT22;4613;48.392;9.998;2023-04-03T07:35:46;4.10;99.90
9157;DHT22;4613;48.392;9.998;2023-04-03T07:38:36;4.20;99.90
9157;DHT22;4613;48.392;9.998;2023-04-03T07:41:25;4.20;99.90
9157;DHT22;4613;48.392;9.998;2023-04-03T07:44:15;4.30;99.90
9157;DHT22;4613;48.392;9.998;2023-04-03T07:47:05;4.20;99.90
9157;DHT22;4613;48.392;9.998;2023-04-03T07:49:54;4.40;99.90
9157;DHT22;4613;48.392;9.998;2023-04-03T07:52:43;4.30;99.90
9157;DHT22;4613;48.392;9.998;2023-04-03T07:55:34;4.60;99.90
9157;DHT22;4613;48.392;9.998;2023-04-03T07:58:23;4.90;99.90
9157;DHT22;4613;48.392;9.998;2023-04-03T08:01:13;4.60;99.90
9157;DHT22;4613;48.392;9.998;2023-04-03T08:04:03;4.60;99.90
9157;DHT22;4613;48.392;9.998;2023-04-03T08:06:52;4.50;99.90
9157;DHT22;4613;48.392;9.998;2023-04-03T08:09:42;4.70;99.90
9157;DHT22;4613;48.392;9.998;2023-04-03T08:12:31;4.80;99.90
9157;DHT22;4613;48.392;9.998;2023-04-03T08:15:21;4.90;99.90
9157;DHT22;4613;48.392;9.998;2023-04-03T08:18:10;4.70;99.90
9157;DHT22;4613;48.392;9.998;2023-04-03T08:20:59;4.70;99.90
9157;DHT22;4613;48.392;9.998;2023-04-03T08:23:49;4.80;99.90
9157;DHT22;4613;48.392;9.998;2023-04-03T08:26:40;4.90;99.90
9157;DHT22;4613;48.392;9.998;2023-04-03T08:29:29;5.10;99.90
9157;DHT22;4613;48.392;9.998;2023-04-03T08:32:18;5.10;99.90
9157;DHT22;4613;48.392;9.998;2023-04-03T08:35:08;5.20;99.90
9157;DHT22;4613;48.392;9.998;2023-04-03T08:37:57;5.30;99.90
9157;DHT22;4613;48.392;9.998;2023-04-03T08:40:47;5.40;99.90
9157;DHT22;4613;48.392;9.998;2023-04-03T08:44:02;5.10;99.90
9157;DHT22;4613;48.392;9.998;2023-04-03T08:47:23;5.00;99.90
9157;DHT22;4613;48.392;9.998;2023-04-03T08:50:17;5.20;99.90
9157;DHT22;4613;48.392;9.998;2023-04-03T08:53:22;5.40;99.90
9157;DHT22;4613;48.392;9.998;2023-04-03T08:56:13;5.30;99.90
9157;DHT22;4613;48.392;9.998;2023-04-03T08:59:06;5.20;99.90
9157;DHT22;4613;48.392;9.998;2023-04-03T09:02:02;5.30;99.90
9157;DHT22;4613;48.392;9.998;2023-04-03T09:04:55;5.40;99.90
9157;DHT22;4613;48.392;9.998;2023-04-03T09:07:54;5.40;99.90
9157;DHT22;4613;48.392;9.998;2023-04-03T09:10:46;5.40;99.90
9157;DHT22;4613;48.392;9.998;2023-04-03T09:13:48;5.10;99.90
9157;DHT22;4613;48.392;9.998;2023-04-03T09:16:55;5.30;99.90
9157;DHT22;4613;48.392;9.998;2023-04-03T09:19:58;5.30;99.90
9157;DHT22;4613;48.392;9.998;2023-04-03T09:22:51;5.20;99.90
9157;DHT22;4613;48.392;9.998;2023-04-03T09:25:45;5.50;99.90
9157;DHT22;4613;48.392;9.998;2023-04-03T09:28:39;5.60;99.90
9157;DHT22;4613;48.392;9.998;2023-04-03T09:31:48;5.80;99.90
9157;DHT22;4613;48.392;9.998;2023-04-03T09:34:39;5.70;99.90
9157;DHT22;4613;48.392;9.998;2023-04-03T09:37:45;5.30;99.90
9157;DHT22;4613;48.392;9.998;2023-04-03T09:40:40;5.20;99.90
9157;DHT22;4613;48.392;9.998;2023-04-03T09:43:32;5.40;99.90
9157;DHT22;4613;48.392;9.998;2023-04-03T09:46:32;5.10;99.90
9157;DHT22;4613;48.392;9.998;2023-04-03T09:49:21;5.10;99.90
9157;DHT22;4613;48.392;9.998;2023-04-03T09:52:23;5.30;99.90
9157;DHT22;4613;48.392;9.998;2023-04-03T09:55:22;5.40;99.90
9157;DHT22;4613;48.392;9.998;2023-04-03T09:58:31;5.30;99.90
9157;DHT22;4613;48.392;9.998;2023-04-03T10:01:31;5.40;99.90
9157;DHT22;4613;48.392;9.998;2023-04-03T10:04:21;5.60;99.90
9157;DHT22;4613;48.392;9.998;2023-04-03T10:07:28;5.30;99.90
9157;DHT22;4613;48.392;9.998;2023-04-03T10:10:22;5.30;99.90
9157;DHT22;4613;48.392;9.998;2023-04-03T10:13:19;5.40;99.90
9157;DHT22;4613;48.392;9.998;2023-04-03T10:16:13;5.70;99.90
9157;DHT22;4613;48.392;9.998;2023-04-03T10:19:28;5.60;99.90
9157;DHT22;4613;48.392;9.998;2023-04-03T10:29:09;5.50;99.90
9157;DHT22;4613;48.392;9.998;2023-04-03T10:38:45;5.60;99.90
9157;DHT22;4613;48.392;9.998;2023-04-03T10:47:51;5.70;99.90
9157;DHT22;4613;48.392;9.998;2023-04-03T10:54:26;5.40;99.90
9157;DHT22;4613;48.392;9.998;2023-04-03T10:57:23;5.50;99.90
9157;DHT22;4613;48.392;9.998;2023-04-03T11:00:19;5.80;99.90
9157;DHT22;4613;48.392;9.998;2023-04-03T11:06:17;5.90;99.90
9157;DHT22;4613;48.392;9.998;2023-04-03T11:09:22;5.90;99.90
9157;DHT22;4613;48.392;9.998;2023-04-03T11:12:17;6.10;99.90
9157;DHT22;4613;48.392;9.998;2023-04-03T11:15:13;6.10;99.90
9157;DHT22;4613;48.392;9.998;2023-04-03T11:18:10;6.20;99.90
9157;DHT22;4613;48.392;9.998;2023-04-03T11:21:16;6.20;99.90
9157;DHT22;4613;48.392;9.998;2023-04-03T11:24:20;6.10;99.90
9157;DHT22;4613;48.392;9.998;2023-04-03T11:27:20;6.10;99.90
9157;DHT22;4613;48.392;9.998;2023-04-03T11:30:27;6.20;99.90
9157;DHT22;4613;48.392;9.998;2023-04-03T11:36:32;6.30;99.90
9157;DHT22;4613;48.392;9.998;2023-04-03T11:39:37;6.00;99.90
9157;DHT22;4613;48.392;9.998;2023-04-03T11:45:36;6.00;99.90
9157;DHT22;4613;48.392;9.998;2023-04-03T12:12:38;5.90;99.90
9157;DHT22;4613;48.392;9.998;2023-04-03T12:18:46;6.00;99.90
9157;DHT22;4613;48.392;9.998;2023-04-03T12:24:37;6.10;99.90
9157;DHT22;4613;48.392;9.998;2023-04-03T12:27:40;6.20;99.90
9157;DHT22;4613;48.392;9.998;2023-04-03T12:30:31;6.00;99.90
9157;DHT22;4613;48.392;9.998;2023-04-03T12:33:38;5.90;99.90
9157;DHT22;4613;48.392;9.998;2023-04-03T12:36:49;5.80;99.90
9157;DHT22;4613;48.392;9.998;2023-04-03T12:48:58;5.90;99.90
9157;DHT22;4613;48.392;9.998;2023-04-03T12:51:48;5.90;99.90
9157;DHT22;4613;48.392;9.998;2023-04-03T12:54:41;5.90;99.90
9157;DHT22;4613;48.392;9.998;2023-04-03T12:57:31;6.10;99.90
9157;DHT22;4613;48.392;9.998;2023-04-03T13:00:33;5.90;99.90
9157;DHT22;4613;48.392;9.998;2023-04-03T13:03:24;6.00;99.90
9157;DHT22;4613;48.392;9.998;2023-04-03T13:06:25;6.00;99.90
9157;DHT22;4613;48.392;9.998;2023-04-03T13:09:30;6.10;99.90
9157;DHT22;4613;48.392;9.998;2023-04-03T13:12:20;6.30;99.90
9157;DHT22;4613;48.392;9.998;2023-04-03T13:18:27;6.20;99.90
9157;DHT22;4613;48.392;9.998;2023-04-03T13:21:26;6.20;99.90
9157;DHT22;4613;48.392;9.998;2023-04-03T13:24:16;6.00;99.90
9157;DHT22;4613;48.392;9.998;2023-04-03T13:27:06;5.90;99.90
9157;DHT22;4613;48.392;9.998;2023-04-03T13:29:58;6.10;99.90
9157;DHT22;4613;48.392;9.998;2023-04-03T13:32:48;6.20;99.90
9157;DHT22;4613;48.392;9.998;2023-04-03T13:35:40;6.10;99.90
9157;DHT22;4613;48.392;9.998;2023-04-03T13:38:31;5.80;99.90
9157;DHT22;4613;48.392;9.998;2023-04-03T13:41:30;6.00;99.90
9157;DHT22;4613;48.392;9.998;2023-04-03T13:50:12;6.20;99.90
9157;DHT22;4613;48.392;9.998;2023-04-03T13:53:13;6.10;99.90
9157;DHT22;4613;48.392;9.998;2023-04-03T13:59:19;6.00;99.90
9157;DHT22;4613;48.392;9.998;2023-04-03T14:02:14;6.00;99.90
9157;DHT22;4613;48.392;9.998;2023-04-03T14:05:05;6.20;99.90
9157;DHT22;4613;48.392;9.998;2023-04-03T14:07:57;6.20;98.90
9157;DHT22;4613;48.392;9.998;2023-04-03T14:10:48;6.30;99.10
9157;DHT22;4613;48.392;9.998;2023-04-03T14:13:38;6.40;98.90
9157;DHT22;4613;48.392;9.998;2023-04-03T14:16:31;6.40;98.40
9157;DHT22;4613;48.392;9.998;2023-04-03T14:19:27;6.50;98.20
9157;DHT22;4613;48.392;9.998;2023-04-03T14:22:23;6.60;98.40
9157;DHT22;4613;48.392;9.998;2023-04-03T14:25:13;6.90;98.30
9157;DHT22;4613;48.392;9.998;2023-04-03T14:28:19;7.00;98.20
9157;DHT22;4613;48.392;9.998;2023-04-03T14:31:11;6.80;97.90
9157;DHT22;4613;48.392;9.998;2023-04-03T14:34:01;6.70;97.90
9157;DHT22;4613;48.392;9.998;2023-04-03T14:36:51;6.70;98.10
9157;DHT22;4613;48.392;9.998;2023-04-03T14:39:42;6.60;97.20
9157;DHT22;4613;48.392;9.998;2023-04-03T14:42:34;8.30;99.90
9157;DHT22;4613;48.392;9.998;2023-04-03T14:45:23;9.10;99.90
9157;DHT22;4613;48.392;9.998;2023-04-03T14:48:23;9.30;99.90
9157;DHT22;4613;48.392;9.998;2023-04-03T14:51:14;8.60;99.90
9157;DHT22;4613;48.392;9.998;2023-04-03T14:54:10;8.80;99.90
9157;DHT22;4613;48.392;9.998;2023-04-03T14:57:01;7.40;96.80
9157;DHT22;4613;48.392;9.998;2023-04-03T14:59:51;6.50;97.20
9157;DHT22;4613;48.392;9.998;2023-04-03T15:02:41;6.20;97.30
9157;DHT22;4613;48.392;9.998;2023-04-03T15:05:30;6.40;97.40
9157;DHT22;4613;48.392;9.998;2023-04-03T15:08:25;6.40;97.50
9157;DHT22;4613;48.392;9.998;2023-04-03T15:11:16;6.50;97.80
9157;DHT22;4613;48.392;9.998;2023-04-03T15:14:05;6.50;97.60
9157;DHT22;4613;48.392;9.998;2023-04-03T15:16:54;6.50;97.00
9157;DHT22;4613;48.392;9.998;2023-04-03T15:19:44;6.20;96.20
9157;DHT22;4613;48.392;9.998;2023-04-03T15:22:33;6.30;96.80
9157;DHT22;4613;48.392;9.998;2023-04-03T15:25:23;6.40;96.30
9157;DHT22;4613;48.392;9.998;2023-04-03T15:31:15;6.80;95.60
9157;DHT22;4613;48.392;9.998;2023-04-03T15:34:04;7.10;95.20
9157;DHT22;4613;48.392;9.998;2023-04-03T15:36:53;7.10;94.90
9157;DHT22;4613;48.392;9.998;2023-04-03T15:39:43;7.10;95.20
9157;DHT22;4613;48.392;9.998;2023-04-03T15:42:32;6.80;94.40
9157;DHT22;4613;48.392;9.998;2023-04-03T15:45:22;6.70;95.00
9157;DHT22;4613;48.392;9.998;2023-04-03T15:48:12;6.70;94.40
9157;DHT22;4613;48.392;9.998;2023-04-03T15:51:01;6.70;94.40
9157;DHT22;4613;48.392;9.998;2023-04-03T15:53:51;7.00;94.30
9157;DHT22;4613;48.392;9.998;2023-04-03T15:56:40;7.00;94.10
9157;DHT22;4613;48.392;9.998;2023-04-03T15:59:29;6.80;94.00
9157;DHT22;4613;48.392;9.998;2023-04-03T16:02:22;6.40;93.70
9157;DHT22;4613;48.392;9.998;2023-04-03T16:05:13;6.20;93.80
9157;DHT22;4613;48.392;9.998;2023-04-03T16:08:02;6.30;93.60
9157;DHT22;4613;48.392;9.998;2023-04-03T16:10:52;6.30;93.40
9157;DHT22;4613;48.392;9.998;2023-04-03T16:13:42;6.40;93.60
9157;DHT22;4613;48.392;9.998;2023-04-03T16:16:32;6.40;92.50
9157;DHT22;4613;48.392;9.998;2023-04-03T16:19:23;6.20;91.30
9157;DHT22;4613;48.392;9.998;2023-04-03T16:22:12;6.30;91.50
9157;DHT22;4613;48.392;9.998;2023-04-03T16:25:04;6.20;91.60
9157;DHT22;4613;48.392;9.998;2023-04-03T16:27:54;6.10;91.90
9157;DHT22;4613;48.392;9.998;2023-04-03T16:30:47;6.20;92.30
9157;DHT22;4613;48.392;9.998;2023-04-03T16:33:38;6.20;92.40
9157;DHT22;4613;48.392;9.998;2023-04-03T16:36:28;6.20;92.50
9157;DHT22;4613;48.392;9.998;2023-04-03T16:39:17;6.10;93.00
9157;DHT22;4613;48.392;9.998;2023-04-03T16:42:06;6.20;92.90
9157;DHT22;4613;48.392;9.998;2023-04-03T16:44:58;6.20;93.00
9157;DHT22;4613;48.392;9.998;2023-04-03T16:47:49;6.20;92.80
9157;DHT22;4613;48.392;9.998;2023-04-03T16:50:39;6.10;92.50
9157;DHT22;4613;48.392;9.998;2023-04-03T16:53:29;6.00;92.70
9157;DHT22;4613;48.392;9.998;2023-04-03T16:56:18;6.10;92.90
9157;DHT22;4613;48.392;9.998;2023-04-03T16:59:08;6.10;92.90
9157;DHT22;4613;48.392;9.998;2023-04-03T17:01:57;6.00;93.00
9157;DHT22;4613;48.392;9.998;2023-04-03T17:04:47;6.00;93.00
9157;DHT22;4613;48.392;9.998;2023-04-03T17:07:36;6.00;93.00
9157;DHT22;4613;48.392;9.998;2023-04-03T17:10:27;6.00;93.20
9157;DHT22;4613;48.392;9.998;2023-04-03T17:13:16;6.00;93.20
9157;DHT22;4613;48.392;9.998;2023-04-03T17:16:10;6.00;92.90
9157;DHT22;4613;48.392;9.998;2023-04-03T17:18:59;6.00;93.00
9157;DHT22;4613;48.392;9.998;2023-04-03T17:21:51;5.90;92.50
9157;DHT22;4613;48.392;9.998;2023-04-03T17:24:40;5.80;92.40
9157;DHT22;4613;48.392;9.998;2023-04-03T17:27:30;5.90;92.20
9157;DHT22;4613;48.392;9.998;2023-04-03T17:30:19;5.80;92.00
9157;DHT22;4613;48.392;9.998;2023-04-03T17:33:09;5.80;92.50
9157;DHT22;4613;48.392;9.998;2023-04-03T17:36:04;5.80;92.30
9157;DHT22;4613;48.392;9.998;2023-04-03T17:38:53;5.70;92.20
9157;DHT22;4613;48.392;9.998;2023-04-03T17:41:42;5.70;91.90
9157;DHT22;4613;48.392;9.998;2023-04-03T17:44:34;5.60;91.90
9157;DHT22;4613;48.392;9.998;2023-04-03T17:47:23;5.70;92.10
9157;DHT22;4613;48.392;9.998;2023-04-03T17:50:14;5.60;92.20
9157;DHT22;4613;48.392;9.998;2023-04-03T17:53:04;5.70;92.40
9157;DHT22;4613;48.392;9.998;2023-04-03T17:55:53;5.60;92.40
9157;DHT22;4613;48.392;9.998;2023-04-03T17:58:43;5.50;92.50
9157;DHT22;4613;48.392;9.998;2023-04-03T18:01:34;5.50;92.40
9157;DHT22;4613;48.392;9.998;2023-04-03T18:04:24;5.60;93.20
9157;DHT22;4613;48.392;9.998;2023-04-03T18:07:14;5.50;93.00
9157;DHT22;4613;48.392;9.998;2023-04-03T18:10:04;5.60;93.20
9157;DHT22;4613;48.392;9.998;2023-04-03T18:12:56;5.70;93.10
9157;DHT22;4613;48.392;9.998;2023-04-03T18:15:46;5.80;93.30
9157;DHT22;4613;48.392;9.998;2023-04-03T18:18:35;5.90;93.20
9157;DHT22;4613;48.392;9.998;2023-04-03T18:21:24;5.90;93.20
9157;DHT22;4613;48.392;9.998;2023-04-03T18:24:17;5.50;92.70
9157;DHT22;4613;48.392;9.998;2023-04-03T18:27:12;5.40;92.70
9157;DHT22;4613;48.392;9.998;2023-04-03T18:30:08;5.30;92.90
9157;DHT22;4613;48.392;9.998;2023-04-03T18:32:58;5.20;93.00
9157;DHT22;4613;48.392;9.998;2023-04-03T18:35:47;5.20;93.10
9157;DHT22;4613;48.392;9.998;2023-04-03T18:38:37;5.20;93.20
9157;DHT22;4613;48.392;9.998;2023-04-03T18:41:30;5.30;93.30
9157;DHT22;4613;48.392;9.998;2023-04-03T18:44:24;5.30;93.40
9157;DHT22;4613;48.392;9.998;2023-04-03T18:47:14;5.30;93.30
9157;DHT22;4613;48.392;9.998;2023-04-03T18:50:05;5.20;93.40
9157;DHT22;4613;48.392;9.998;2023-04-03T18:52:55;5.30;93.50
9157;DHT22;4613;48.392;9.998;2023-04-03T18:55:47;5.30;93.30
9157;DHT22;4613;48.392;9.998;2023-04-03T18:58:36;5.30;92.90
9157;DHT22;4613;48.392;9.998;2023-04-03T19:01:26;5.30;92.90
9157;DHT22;4613;48.392;9.998;2023-04-03T19:04:18;5.20;93.00
9157;DHT22;4613;48.392;9.998;2023-04-03T19:07:09;5.20;92.90
9157;DHT22;4613;48.392;9.998;2023-04-03T19:09:59;5.20;93.30
9157;DHT22;4613;48.392;9.998;2023-04-03T19:12:50;5.10;93.60
9157;DHT22;4613;48.392;9.998;2023-04-03T19:15:39;5.20;94.00
9157;DHT22;4613;48.392;9.998;2023-04-03T19:18:28;5.10;94.10
9157;DHT22;4613;48.392;9.998;2023-04-03T19:21:18;5.10;94.40
9157;DHT22;4613;48.392;9.998;2023-04-03T19:24:10;5.00;94.60
9157;DHT22;4613;48.392;9.998;2023-04-03T19:26:59;5.10;94.70
9157;DHT22;4613;48.392;9.998;2023-04-03T19:29:49;5.10;94.90
9157;DHT22;4613;48.392;9.998;2023-04-03T19:32:39;5.00;95.00
9157;DHT22;4613;48.392;9.998;2023-04-03T19:35:28;4.90;95.20
9157;DHT22;4613;48.392;9.998;2023-04-03T19:38:17;4.80;95.30
9157;DHT22;4613;48.392;9.998;2023-04-03T19:41:19;4.80;95.60
9157;DHT22;4613;48.392;9.998;2023-04-03T19:44:10;4.80;95.70
9157;DHT22;4613;48.392;9.998;2023-04-03T19:47:02;4.80;95.70
9157;DHT22;4613;48.392;9.998;2023-04-03T19:49:51;4.80;95.60
9157;DHT22;4613;48.392;9.998;2023-04-03T19:52:40;4.80;95.60
9157;DHT22;4613;48.392;9.998;2023-04-03T19:55:29;4.80;95.70
9157;DHT22;4613;48.392;9.998;2023-04-03T19:58:19;4.80;95.70
9157;DHT22;4613;48.392;9.998;2023-04-03T20:01:08;4.80;94.60
9157;DHT22;4613;48.392;9.998;2023-04-03T20:03:58;4.80;94.40
9157;DHT22;4613;48.392;9.998;2023-04-03T20:06:48;4.80;94.00
9157;DHT22;4613;48.392;9.998;2023-04-03T20:09:38;4.70;93.60
9157;DHT22;4613;48.392;9.998;2023-04-03T20:12:27;4.70;93.30
9157;DHT22;4613;48.392;9.998;2023-04-03T20:15:17;4.70;92.60
9157;DHT22;4613;48.392;9.998;2023-04-03T20:18:08;4.60;92.50
9157;DHT22;4613;48.392;9.998;2023-04-03T20:21:00;4.50;92.20
9157;DHT22;4613;48.392;9.998;2023-04-03T20:23:50;4.50;92.20
9157;DHT22;4613;48.392;9.998;2023-04-03T20:26:40;4.50;92.10
9157;DHT22;4613;48.392;9.998;2023-04-03T20:29:35;4.30;91.70
9157;DHT22;4613;48.392;9.998;2023-04-03T20:32:24;4.30;91.90
9157;DHT22;4613;48.392;9.998;2023-04-03T20:35:16;4.30;91.90